Time;durP1;ratioP1;P1;durP2;ratioP2;P2;SDS_P1;SDS_P2;PMS_P1;PMS_P2;Temp;Humidity;BMP_temperature;BMP_pressure;BME280_temperature;BME280_humidity;BME280_pressure;Samples;Min_cycle;Max_cycle;Signal;HPM_P1;HPM_P2
2021/05/30 00:00:00;;;;;;;14.77;11.25;;;;;;;;;;5053361;28;20253;-58
2021/05/30 00:02:26;;;;;;;16.67;11.10;;;;;;;;;;5053193;28;20275;-57
2021/05/30 00:04:54;;;;;;;12.57;11.27;;;;;;;;;;5053302;28;20201;-57
2021/05/30 00:07:22;;;;;;;13.57;10.68;;;;;;;;;;5053252;28;20202;-57
2021/05/30 00:09:49;;;;;;;12.30;10.90;;;;;;;;;;5052850;28;20712;-58
2021/05/30 00:12:16;;;;;;;13.52;10.60;;;;;;;;;;5052908;28;20571;-59
2021/05/30 00:14:42;;;;;;;15.55;12.13;;;;;;;;;;5052879;28;20205;-58
2021/05/30 00:17:09;;;;;;;14.38;10.75;;;;;;;;;;5053039;28;20204;-58
2021/05/30 00:19:36;;;;;;;12.55;10.35;;;;;;;;;;5053018;28;20210;-58
2021/05/30 00:22:04;;;;;;;13.60;10.55;;;;;;;;;;5052660;28;20217;-57
2021/05/30 00:24:31;;;;;;;17.27;11.00;;;;;;;;;;5056314;28;20228;-58
2021/05/30 00:26:58;;;;;;;13.85;11.13;;;;;;;;;;5057210;28;20205;-59
2021/05/30 00:29:24;;;;;;;14.52;10.70;;;;;;;;;;5057110;28;20214;-60
2021/05/30 00:31:51;;;;;;;11.98;10.35;;;;;;;;;;5056905;28;20233;-59
2021/05/30 00:34:18;;;;;;;11.73;10.10;;;;;;;;;;5057149;28;20613;-59
2021/05/30 00:36:45;;;;;;;13.80;10.77;;;;;;;;;;5057101;28;20575;-58
2021/05/30 00:39:12;;;;;;;12.77;11.38;;;;;;;;;;5056702;28;20198;-59
2021/05/30 00:41:39;;;;;;;13.82;10.85;;;;;;;;;;5056887;28;20259;-58
2021/05/30 00:44:19;;;;;;;13.80;11.00;;;;;;;;;;5056562;28;20669;-58
2021/05/30 00:46:46;;;;;;;12.73;11.27;;;;;;;;;;5056558;28;20182;-58
2021/05/30 00:49:13;;;;;;;16.05;11.88;;;;;;;;;;5057174;28;20217;-58
2021/05/30 00:51:39;;;;;;;18.65;12.68;;;;;;;;;;5056660;28;20201;-60
2021/05/30 00:54:06;;;;;;;12.80;11.50;;;;;;;;;;5056738;28;20209;-59
2021/05/30 00:56:34;;;;;;;14.63;12.65;;;;;;;;;;5056340;28;20608;-58
2021/05/30 00:59:01;;;;;;;14.38;12.82;;;;;;;;;;5056575;28;20193;-58
2021/05/30 01:01:27;;;;;;;17.33;13.35;;;;;;;;;;5056205;28;20212;-59
2021/05/30 01:03:54;;;;;;;14.52;11.95;;;;;;;;;;5056538;28;20209;-58
2021/05/30 01:06:24;;;;;;;13.93;11.60;;;;;;;;;;5056160;28;20692;-58
2021/05/30 01:08:50;;;;;;;15.27;12.00;;;;;;;;;;5056331;28;20244;-58
2021/05/30 01:11:18;;;;;;;16.65;12.27;;;;;;;;;;5056010;28;20669;-58
2021/05/30 01:13:46;;;;;;;18.83;14.10;;;;;;;;;;5056325;28;20222;-58
2021/05/30 01:16:13;;;;;;;17.98;13.07;;;;;;;;;;5056241;28;20198;-58
2021/05/30 01:18:40;;;;;;;19.45;13.75;;;;;;;;;;5056268;28;20198;-59
2021/05/30 01:21:07;;;;;;;17.40;13.00;;;;;;;;;;5055884;28;20212;-58
2021/05/30 01:23:35;;;;;;;18.63;14.07;;;;;;;;;;5055927;28;20731;-58
2021/05/30 01:26:01;;;;;;;16.40;13.80;;;;;;;;;;5056134;28;20197;-58
2021/05/30 01:28:28;;;;;;;16.25;13.40;;;;;;;;;;5055739;28;20221;-58
2021/05/30 01:30:55;;;;;;;14.00;12.50;;;;;;;;;;5055915;28;20202;-58
2021/05/30 01:33:22;;;;;;;16.08;12.40;;;;;;;;;;5055764;28;20236;-58
2021/05/30 01:35:49;;;;;;;16.80;12.10;;;;;;;;;;5054814;28;20205;-58
2021/05/30 01:38:16;;;;;;;16.73;12.77;;;;;;;;;;5055848;28;20220;-58
2021/05/30 01:40:43;;;;;;;15.68;12.20;;;;;;;;;;5055766;28;20204;-58
2021/05/30 01:43:10;;;;;;;17.98;11.65;;;;;;;;;;5055767;28;20253;-58
2021/05/30 01:45:38;;;;;;;16.23;13.23;;;;;;;;;;5055699;28;20579;-58
2021/05/30 01:48:06;;;;;;;13.82;12.10;;;;;;;;;;5055556;28;20198;-59
2021/05/30 01:50:34;;;;;;;14.63;12.20;;;;;;;;;;5055566;28;20284;-58
2021/05/30 01:53:05;;;;;;;15.25;13.50;;;;;;;;;;5055547;28;20286;-58
2021/05/30 01:55:44;;;;;;;19.17;12.88;;;;;;;;;;5055232;28;20650;-58
2021/05/30 01:58:13;;;;;;;16.48;12.80;;;;;;;;;;5055551;28;20189;-58
2021/05/30 02:00:40;;;;;;;16.25;12.98;;;;;;;;;;5055213;28;20680;-58
2021/05/30 02:03:08;;;;;;;15.90;14.20;;;;;;;;;;5055134;28;20221;-58
2021/05/30 02:05:34;;;;;;;16.42;12.98;;;;;;;;;;5055402;28;20281;-58
2021/05/30 02:08:01;;;;;;;20.80;14.05;;;;;;;;;;5055016;28;20669;-59
2021/05/30 02:10:28;;;;;;;16.98;13.70;;;;;;;;;;5055050;28;20738;-58
2021/05/30 02:12:56;;;;;;;18.63;13.93;;;;;;;;;;5055341;28;20217;-58
2021/05/30 02:15:24;;;;;;;14.15;12.13;;;;;;;;;;5055331;28;20202;-57
2021/05/30 02:17:51;;;;;;;14.98;12.60;;;;;;;;;;5055216;28;20202;-58
2021/05/30 02:20:18;;;;;;;16.88;12.73;;;;;;;;;;5054749;28;20251;-58
2021/05/30 02:22:45;;;;;;;20.08;13.52;;;;;;;;;;5054675;28;20727;-58
2021/05/30 02:25:12;;;;;;;16.35;13.63;;;;;;;;;;5055045;28;20228;-58
2021/05/30 02:27:39;;;;;;;14.63;12.40;;;;;;;;;;5054664;28;20694;-58
2021/05/30 02:30:07;;;;;;;16.15;14.38;;;;;;;;;;5054552;28;20218;-58
2021/05/30 02:32:35;;;;;;;20.23;13.70;;;;;;;;;;5079635;22;20232;-64
2021/05/30 02:35:01;;;;;;;15.18;13.10;;;;;;;;;;5055052;28;20205;-65
2021/05/30 02:37:28;;;;;;;15.85;13.07;;;;;;;;;;5054771;28;20669;-65
2021/05/30 02:39:55;;;;;;;15.43;12.90;;;;;;;;;;5054684;28;20202;-65
2021/05/30 02:42:22;;;;;;;17.80;14.20;;;;;;;;;;5054961;28;20218;-65
2021/05/30 02:44:48;;;;;;;17.58;13.85;;;;;;;;;;5055909;28;20205;-65
2021/05/30 02:47:15;;;;;;;16.80;13.48;;;;;;;;;;5054513;28;20204;-65
2021/05/30 02:49:43;;;;;;;17.20;12.95;;;;;;;;;;5055207;28;20225;-65
2021/05/30 02:52:09;;;;;;;23.90;15.75;;;;;;;;;;5054917;28;20708;-65
2021/05/30 02:54:36;;;;;;;20.98;15.48;;;;;;;;;;5055120;28;20212;-65
2021/05/30 02:57:03;;;;;;;22.98;16.02;;;;;;;;;;5055319;28;20564;-64
2021/05/30 02:59:30;;;;;;;20.80;15.43;;;;;;;;;;5054810;28;20661;-65
2021/05/30 03:01:57;;;;;;;19.55;15.73;;;;;;;;;;5054687;28;20205;-65
2021/05/30 03:04:23;;;;;;;18.15;14.40;;;;;;;;;;5054480;28;20205;-65
2021/05/30 03:06:51;;;;;;;21.63;14.73;;;;;;;;;;5054362;28;20621;-65
2021/05/30 03:09:18;;;;;;;18.48;13.82;;;;;;;;;;5054341;28;20568;-65
2021/05/30 03:11:45;;;;;;;19.98;15.40;;;;;;;;;;5054086;28;20613;-65
2021/05/30 03:14:11;;;;;;;18.40;14.68;;;;;;;;;;5054281;28;20221;-65
2021/05/30 03:16:38;;;;;;;23.00;14.65;;;;;;;;;;5054343;28;20201;-65
2021/05/30 03:19:05;;;;;;;18.60;14.20;;;;;;;;;;5054239;28;20209;-65
2021/05/30 03:21:32;;;;;;;21.02;15.27;;;;;;;;;;5054134;28;20197;-65
2021/05/30 03:24:00;;;;;;;20.80;14.65;;;;;;;;;;5054167;28;20222;-65
2021/05/30 03:26:27;;;;;;;20.08;14.77;;;;;;;;;;5054184;28;20226;-65
2021/05/30 03:28:54;;;;;;;18.90;14.10;;;;;;;;;;5054296;28;20221;-65
2021/05/30 03:31:21;;;;;;;20.00;14.00;;;;;;;;;;5054165;28;20210;-65
2021/05/30 03:33:48;;;;;;;19.30;14.68;;;;;;;;;;5053580;28;20777;-65
2021/05/30 03:36:18;;;;;;;20.33;14.45;;;;;;;;;;5053635;28;20205;-64
2021/05/30 03:38:45;;;;;;;21.58;15.55;;;;;;;;;;5054041;28;20186;-65
2021/05/30 03:41:14;;;;;;;18.65;13.82;;;;;;;;;;5053828;28;20206;-65
2021/05/30 03:43:41;;;;;;;17.00;14.18;;;;;;;;;;5053328;28;20296;-66
2021/05/30 03:46:08;;;;;;;17.30;13.77;;;;;;;;;;5053588;28;20206;-65
2021/05/30 03:48:35;;;;;;;21.92;13.57;;;;;;;;;;5053204;28;20214;-66
2021/05/30 03:51:02;;;;;;;16.88;13.57;;;;;;;;;;5053569;28;20213;-66
2021/05/30 03:53:28;;;;;;;16.90;13.90;;;;;;;;;;5053605;28;20222;-65
2021/05/30 03:55:55;;;;;;;21.30;15.32;;;;;;;;;;5053420;28;20198;-66
2021/05/30 03:58:23;;;;;;;16.48;12.63;;;;;;;;;;5053027;28;20256;-65
2021/05/30 04:00:50;;;;;;;17.77;12.63;;;;;;;;;;5052957;28;20547;-65
2021/05/30 04:03:16;;;;;;;13.13;10.48;;;;;;;;;;5053254;28;20598;-65
2021/05/30 04:08:09;;;;;;;17.63;11.05;;;;;;;;;;5091675;27;20553;-65
2021/05/30 04:10:36;;;;;;;12.83;11.50;;;;;;;;;;5091028;28;20269;-66
2021/05/30 04:13:02;;;;;;;14.33;11.20;;;;;;;;;;5090787;28;20458;-66
2021/05/30 04:15:29;;;;;;;14.23;10.73;;;;;;;;;;5091405;28;20495;-66
2021/05/30 04:17:57;;;;;;;13.50;11.07;;;;;;;;;;5092167;28;20461;-65
2021/05/30 04:20:23;;;;;;;12.40;11.10;;;;;;;;;;5109251;22;20495;-56
2021/05/30 04:22:50;;;;;;;13.03;11.37;;;;;;;;;;5050781;28;20566;-57
2021/05/30 04:25:18;;;;;;;13.50;11.03;;;;;;;;;;5050530;28;20443;-57
2021/05/30 04:27:45;;;;;;;13.90;10.30;;;;;;;;;;5050146;28;20529;-58
2021/05/30 04:30:12;;;;;;;13.33;11.00;;;;;;;;;;5050055;28;20483;-58
2021/05/30 04:32:40;;;;;;;11.97;10.77;;;;;;;;;;5050055;28;20974;-58
2021/05/30 04:35:07;;;;;;;14.70;11.00;;;;;;;;;;5080835;22;20491;-60
2021/05/30 04:37:34;;;;;;;13.97;10.67;;;;;;;;;;5049757;28;20924;-60
2021/05/30 04:40:01;;;;;;;11.60;10.40;;;;;;;;;;5065382;22;20530;-58
2021/05/30 04:42:29;;;;;;;11.73;10.53;;;;;;;;;;5049867;28;20939;-57
2021/05/30 04:44:56;;;;;;;18.80;11.50;;;;;;;;;;5050065;28;20447;-57
2021/05/30 04:47:22;;;;;;;13.03;10.80;;;;;;;;;;5050260;28;20476;-58
2021/05/30 04:49:49;;;;;;;12.70;11.40;;;;;;;;;;5050228;28;20464;-57
2021/05/30 04:52:16;;;;;;;12.20;10.90;;;;;;;;;;5049976;28;20823;-57
2021/05/30 04:54:55;;;;;;;14.03;12.13;;;;;;;;;;5049705;28;20444;-57
2021/05/30 04:57:22;;;;;;;12.90;11.70;;;;;;;;;;5049847;28;20428;-57
2021/05/30 04:59:49;;;;;;;12.13;10.90;;;;;;;;;;5049709;28;20472;-58
2021/05/30 05:02:16;;;;;;;13.50;11.03;;;;;;;;;;5049470;28;20471;-56
2021/05/30 05:04:43;;;;;;;12.13;10.80;;;;;;;;;;5049719;28;20444;-57
2021/05/30 05:07:10;;;;;;;12.50;10.50;;;;;;;;;;5049658;28;20487;-56
2021/05/30 05:09:36;;;;;;;13.77;12.30;;;;;;;;;;5080183;22;20496;-60
2021/05/30 05:12:03;;;;;;;12.07;10.83;;;;;;;;;;5049485;28;20818;-60
2021/05/30 05:14:30;;;;;;;13.27;11.80;;;;;;;;;;5086705;22;21004;-57
2021/05/30 05:16:58;;;;;;;11.87;10.60;;;;;;;;;;5049774;28;20467;-57
2021/05/30 05:19:25;;;;;;;12.50;10.53;;;;;;;;;;5037067;28;20449;-57
2021/05/30 05:21:51;;;;;;;15.20;10.97;;;;;;;;;;5036424;28;20445;-56
2021/05/30 05:24:18;;;;;;;14.07;11.00;;;;;;;;;;5036042;28;20491;-58
2021/05/30 05:26:45;;;;;;;11.07;9.97;;;;;;;;;;5035920;28;20486;-57
2021/05/30 05:29:11;;;;;;;12.67;10.57;;;;;;;;;;5035881;28;20455;-57
2021/05/30 05:31:38;;;;;;;12.40;10.70;;;;;;;;;;5036094;28;20456;-57
2021/05/30 05:34:06;;;;;;;14.20;11.23;;;;;;;;;;5035660;28;20972;-55
2021/05/30 05:36:33;;;;;;;15.70;11.90;;;;;;;;;;5035787;28;20437;-56
2021/05/30 05:39:00;;;;;;;12.83;11.63;;;;;;;;;;5035782;28;20563;-57
2021/05/30 05:41:26;;;;;;;13.63;11.40;;;;;;;;;;5036391;28;20445;-55
2021/05/30 05:46:26;;;;;;;15.27;11.20;;;;;;;;;;5059090;22;20481;-58
2021/05/30 05:48:53;;;;;;;14.83;12.17;;;;;;;;;;5035438;28;20441;-58
2021/05/30 05:51:21;;;;;;;12.60;11.27;;;;;;;;;;5035623;28;20445;-58
2021/05/30 05:53:48;;;;;;;13.33;11.50;;;;;;;;;;5035548;28;20467;-58
2021/05/30 05:56:15;;;;;;;16.60;12.40;;;;;;;;;;5035457;28;20539;-58
2021/05/30 05:58:42;;;;;;;13.20;11.27;;;;;;;;;;5035465;28;20468;-57
2021/05/30 06:01:10;;;;;;;12.07;10.73;;;;;;;;;;5035390;28;20491;-59
2021/05/30 06:03:37;;;;;;;14.47;12.00;;;;;;;;;;5035324;28;20444;-59
2021/05/30 06:06:04;;;;;;;15.43;11.60;;;;;;;;;;5034990;28;20469;-58
2021/05/30 06:08:32;;;;;;;13.10;11.50;;;;;;;;;;5034837;28;21005;-59
2021/05/30 06:10:59;;;;;;;13.73;11.60;;;;;;;;;;5034967;28;20437;-58
2021/05/30 06:13:25;;;;;;;12.63;11.33;;;;;;;;;;5068839;22;20483;-56
2021/05/30 06:15:52;;;;;;;15.90;12.30;;;;;;;;;;5034907;28;20963;-56
2021/05/30 06:18:22;;;;;;;13.87;12.10;;;;;;;;;;5035021;28;20963;-56
2021/05/30 06:20:49;;;;;;;13.00;11.20;;;;;;;;;;5035159;28;20452;-57
2021/05/30 06:23:16;;;;;;;13.57;11.63;;;;;;;;;;5035009;28;20518;-56
2021/05/30 06:25:44;;;;;;;13.27;11.97;;;;;;;;;;5035082;28;20445;-57
2021/05/30 06:28:11;;;;;;;16.50;12.20;;;;;;;;;;5035061;28;20476;-58
2021/05/30 06:30:39;;;;;;;16.33;11.60;;;;;;;;;;5034231;28;20507;-57
2021/05/30 06:33:07;;;;;;;15.80;12.20;;;;;;;;;;5035123;28;20460;-58
2021/05/30 06:35:35;;;;;;;14.93;12.53;;;;;;;;;;5034524;28;20963;-57
2021/05/30 06:38:02;;;;;;;18.23;12.57;;;;;;;;;;5034909;28;20450;-57
2021/05/30 06:40:29;;;;;;;14.90;12.40;;;;;;;;;;5034860;28;20790;-58
2021/05/30 06:42:56;;;;;;;11.63;10.20;;;;;;;;;;5034552;28;20456;-58
2021/05/30 06:45:23;;;;;;;18.37;13.13;;;;;;;;;;5036104;28;20453;-58
2021/05/30 06:47:52;;;;;;;15.97;11.60;;;;;;;;;;5035645;28;20484;-56
2021/05/30 06:50:19;;;;;;;14.90;11.50;;;;;;;;;;5034232;28;20445;-57
2021/05/30 06:52:46;;;;;;;12.40;10.77;;;;;;;;;;5034101;28;20933;-58
2021/05/30 06:55:13;;;;;;;12.40;10.50;;;;;;;;;;5033866;28;20465;-58
2021/05/30 06:57:40;;;;;;;15.77;11.67;;;;;;;;;;5034362;28;20437;-58
2021/05/30 07:00:08;;;;;;;18.23;11.17;;;;;;;;;;5033971;28;20445;-58
2021/05/30 07:02:35;;;;;;;13.47;9.70;;;;;;;;;;5034108;28;20801;-59
2021/05/30 07:05:02;;;;;;;14.00;11.57;;;;;;;;;;5035335;28;20480;-59
2021/05/30 07:07:29;;;;;;;12.13;10.60;;;;;;;;;;5034077;28;20484;-60
2021/05/30 07:09:55;;;;;;;10.10;8.60;;;;;;;;;;5033821;28;20929;-60
2021/05/30 07:12:22;;;;;;;15.33;11.73;;;;;;;;;;5033679;28;20960;-60
2021/05/30 07:14:49;;;;;;;15.30;11.23;;;;;;;;;;5033587;28;20477;-59
2021/05/30 07:17:16;;;;;;;13.43;12.03;;;;;;;;;;5033926;28;20437;-60
2021/05/30 07:22:19;;;;;;;13.83;11.07;;;;;;;;;;5032521;28;20953;-59
2021/05/30 07:24:45;;;;;;;14.17;11.07;;;;;;;;;;5073393;22;21005;-59
2021/05/30 07:27:12;;;;;;;12.00;10.13;;;;;;;;;;5053829;28;21021;-60
2021/05/30 07:29:39;;;;;;;15.30;10.80;;;;;;;;;;5053740;28;20460;-59
2021/05/30 07:32:06;;;;;;;11.80;9.53;;;;;;;;;;5053491;28;21005;-60
2021/05/30 07:34:34;;;;;;;12.83;10.67;;;;;;;;;;5053186;28;20840;-60
2021/05/30 07:37:00;;;;;;;10.27;9.20;;;;;;;;;;5053511;28;20502;-59
2021/05/30 07:39:27;;;;;;;10.97;8.97;;;;;;;;;;5053268;28;20514;-59
2021/05/30 07:41:54;;;;;;;15.23;9.60;;;;;;;;;;5068047;22;20492;-59
2021/05/30 07:44:20;;;;;;;12.23;10.50;;;;;;;;;;5052856;28;20444;-59
2021/05/30 07:46:47;;;;;;;13.20;9.50;;;;;;;;;;5053171;28;20476;-59
2021/05/30 07:49:14;;;;;;;15.60;10.33;;;;;;;;;;5052844;28;20996;-59
2021/05/30 07:51:42;;;;;;;12.07;9.70;;;;;;;;;;5052967;28;20537;-59
2021/05/30 07:54:09;;;;;;;10.30;9.17;;;;;;;;;;5082704;22;20577;-59
2021/05/30 07:56:37;;;;;;;12.43;8.93;;;;;;;;;;5052832;28;20440;-60
2021/05/30 07:59:04;;;;;;;10.80;9.23;;;;;;;;;;5052913;28;20959;-59
2021/05/30 08:01:30;;;;;;;13.50;9.50;;;;;;;;;;5052954;28;20451;-59
2021/05/30 08:03:57;;;;;;;12.70;8.83;;;;;;;;;;5052833;28;20456;-59
2021/05/30 08:06:24;;;;;;;11.80;9.50;;;;;;;;;;5052926;28;20487;-59
2021/05/30 08:08:52;;;;;;;9.10;8.20;;;;;;;;;;5053203;28;20455;-59
2021/05/30 08:11:18;;;;;;;8.80;8.00;;;;;;;;;;5052939;28;20474;-60
2021/05/30 08:13:45;;;;;;;13.07;8.53;;;;;;;;;;5053048;28;20517;-60
2021/05/30 08:16:12;;;;;;;9.53;8.63;;;;;;;;;;5077026;22;20479;-59
2021/05/30 08:18:38;;;;;;;10.97;8.67;;;;;;;;;;5052765;28;20451;-59
2021/05/30 08:21:05;;;;;;;9.90;7.77;;;;;;;;;;5053081;28;20474;-60
2021/05/30 08:23:32;;;;;;;8.60;7.30;;;;;;;;;;5053018;28;20452;-59
2021/05/30 08:26:00;;;;;;;10.17;8.60;;;;;;;;;;5052647;28;20455;-60
2021/05/30 08:28:26;;;;;;;8.50;7.67;;;;;;;;;;5052429;28;20848;-61
2021/05/30 08:30:53;;;;;;;9.13;7.20;;;;;;;;;;5052742;28;20833;-61
2021/05/30 08:33:20;;;;;;;10.70;7.77;;;;;;;;;;5052585;28;20455;-60
2021/05/30 08:35:47;;;;;;;9.47;7.97;;;;;;;;;;5052510;28;20443;-60
2021/05/30 08:38:14;;;;;;;13.80;8.40;;;;;;;;;;5052638;28;20440;-60
2021/05/30 08:40:42;;;;;;;8.53;7.30;;;;;;;;;;5052547;28;20444;-60
2021/05/30 08:43:11;;;;;;;9.03;7.63;;;;;;;;;;5075846;22;20424;-57
2021/05/30 08:45:38;;;;;;;11.43;8.70;;;;;;;;;;5052747;28;20425;-58
2021/05/30 08:48:05;;;;;;;12.30;8.70;;;;;;;;;;5052643;28;20476;-58
2021/05/30 08:50:32;;;;;;;9.50;8.13;;;;;;;;;;5052593;28;20866;-59
2021/05/30 08:52:59;;;;;;;9.73;8.13;;;;;;;;;;5053610;28;20447;-59
2021/05/30 08:55:25;;;;;;;10.47;7.70;;;;;;;;;;5057056;28;20477;-58
2021/05/30 08:57:52;;;;;;;9.67;7.73;;;;;;;;;;5056830;28;20448;-59
2021/05/30 09:00:23;;;;;;;9.23;7.30;;;;;;;;;;5056237;28;20459;-59
2021/05/30 09:03:05;;;;;;;8.67;7.73;;;;;;;;;;5056622;28;20429;-60
2021/05/30 09:05:35;;;;;;;8.23;7.33;;;;;;;;;;5056485;28;20443;-60
2021/05/30 09:08:02;;;;;;;8.00;7.20;;;;;;;;;;5056362;28;20664;-60
2021/05/30 09:10:29;;;;;;;8.47;7.60;;;;;;;;;;5056678;28;20443;-59
2021/05/30 09:15:51;;;;;;;12.83;7.47;;;;;;;;;;5053417;22;20488;-59
2021/05/30 09:18:19;;;;;;;8.17;6.50;;;;;;;;;;5036036;28;20475;-60
2021/05/30 09:20:52;;;;;;;7.60;6.13;;;;;;;;;;5036011;28;20523;-60
2021/05/30 09:23:28;;;;;;;7.17;6.30;;;;;;;;;;5035779;28;20437;-57
2021/05/30 09:26:06;;;;;;;8.47;7.00;;;;;;;;;;5036443;28;20482;-57
2021/05/30 09:28:33;;;;;;;7.93;7.00;;;;;;;;;;5036598;28;20522;-55
2021/05/30 09:31:02;;;;;;;12.00;7.00;;;;;;;;;;5036259;28;20897;-58
2021/05/30 09:33:30;;;;;;;9.33;7.57;;;;;;;;;;5036116;28;20507;-60
2021/05/30 09:36:00;;;;;;;9.53;7.30;;;;;;;;;;5035571;28;20800;-59
2021/05/30 09:38:29;;;;;;;7.17;6.47;;;;;;;;;;5036095;28;20804;-59
2021/05/30 09:40:58;;;;;;;7.33;6.60;;;;;;;;;;5035949;28;20475;-59
2021/05/30 09:43:26;;;;;;;8.63;7.37;;;;;;;;;;5035455;28;20446;-58
2021/05/30 09:46:04;;;;;;;6.30;5.70;;;;;;;;;;5035304;28;20987;-60
2021/05/30 09:48:32;;;;;;;8.00;7.20;;;;;;;;;;5035686;28;20477;-58
2021/05/30 09:51:06;;;;;;;8.20;6.63;;;;;;;;;;5035497;28;20494;-58
2021/05/30 09:53:34;;;;;;;8.83;6.60;;;;;;;;;;5035412;28;20838;-58
2021/05/30 09:56:02;;;;;;;11.27;7.60;;;;;;;;;;5035408;28;20559;-58
2021/05/30 09:58:28;;;;;;;7.20;6.50;;;;;;;;;;5035056;28;20456;-59
2021/05/30 10:01:00;;;;;;;7.90;6.47;;;;;;;;;;5035345;28;20528;-57
2021/05/30 10:03:28;;;;;;;9.10;6.80;;;;;;;;;;5034840;28;20445;-58
2021/05/30 10:05:55;;;;;;;6.90;5.70;;;;;;;;;;5073642;22;20484;-59
2021/05/30 10:08:23;;;;;;;8.80;5.70;;;;;;;;;;5055681;28;20479;-60
2021/05/30 10:10:50;;;;;;;7.00;5.80;;;;;;;;;;5055380;28;20444;-59
2021/05/30 10:13:17;;;;;;;6.43;5.50;;;;;;;;;;5055097;28;20451;-58
2021/05/30 10:15:44;;;;;;;6.37;5.70;;;;;;;;;;5055194;28;20468;-59
2021/05/30 10:18:12;;;;;;;6.37;5.73;;;;;;;;;;5054905;28;20448;-59
2021/05/30 10:20:40;;;;;;;7.57;5.90;;;;;;;;;;5054902;28;20460;-58
2021/05/30 10:23:08;;;;;;;8.40;6.30;;;;;;;;;;5054644;28;20448;-59
2021/05/30 10:25:36;;;;;;;6.67;5.70;;;;;;;;;;5054506;28;20975;-59
2021/05/30 10:28:13;;;;;;;6.53;5.70;;;;;;;;;;5055007;28;20536;-61
2021/05/30 10:30:41;;;;;;;8.20;5.73;;;;;;;;;;5054841;28;20428;-59
2021/05/30 10:33:18;;;;;;;6.03;5.30;;;;;;;;;;5054266;28;20444;-60
2021/05/30 10:35:47;;;;;;;5.37;4.87;;;;;;;;;;5054246;28;20459;-59
2021/05/30 10:38:14;;;;;;;5.13;4.67;;;;;;;;;;5054486;28;20442;-59
2021/05/30 10:40:42;;;;;;;5.57;5.00;;;;;;;;;;5054063;28;20448;-60
2021/05/30 10:43:20;;;;;;;5.27;4.77;;;;;;;;;;5054397;28;20460;-60
2021/05/30 10:46:00;;;;;;;6.50;5.20;;;;;;;;;;5053929;28;21027;-60
2021/05/30 10:48:27;;;;;;;5.40;4.93;;;;;;;;;;5053866;28;20475;-62
2021/05/30 10:51:07;;;;;;;4.93;4.43;;;;;;;;;;5053695;28;20955;-60
2021/05/30 10:53:35;;;;;;;5.33;4.83;;;;;;;;;;5054190;28;20490;-59
2021/05/30 10:56:15;;;;;;;8.93;6.80;;;;;;;;;;5053750;28;20468;-60
2021/05/30 10:58:42;;;;;;;7.00;6.10;;;;;;;;;;5054031;28;20444;-60
2021/05/30 11:01:27;;;;;;;6.60;5.40;;;;;;;;;;5053806;28;20448;-60
2021/05/30 11:03:54;;;;;;;6.63;5.87;;;;;;;;;;5054021;28;20498;-59
2021/05/30 11:06:35;;;;;;;6.90;6.07;;;;;;;;;;5053392;28;20480;-57
2021/05/30 11:09:03;;;;;;;6.37;5.77;;;;;;;;;;5053586;28;20502;-59
2021/05/30 11:11:30;;;;;;;7.27;6.27;;;;;;;;;;5053569;28;20444;-57
2021/05/30 11:13:58;;;;;;;7.23;6.53;;;;;;;;;;5053971;28;20445;-59
2021/05/30 11:16:25;;;;;;;6.73;5.57;;;;;;;;;;5053620;28;20493;-59
2021/05/30 11:19:02;;;;;;;6.00;5.00;;;;;;;;;;5055078;28;20451;-59
2021/05/30 11:21:30;;;;;;;5.43;4.77;;;;;;;;;;5053700;28;20443;-58
2021/05/30 11:23:58;;;;;;;6.57;5.03;;;;;;;;;;5053841;28;20444;-59
2021/05/30 11:26:25;;;;;;;6.73;5.73;;;;;;;;;;5053558;28;20470;-60
2021/05/30 11:28:52;;;;;;;8.73;5.90;;;;;;;;;;5053601;28;20446;-60
2021/05/30 11:31:19;;;;;;;6.43;5.83;;;;;;;;;;5053312;28;20457;-60
2021/05/30 11:33:47;;;;;;;5.10;4.70;;;;;;;;;;5053679;28;20498;-59
2021/05/30 11:36:26;;;;;;;5.00;4.00;;;;;;;;;;5053517;28;20987;-60
2021/05/30 11:38:55;;;;;;;4.50;3.60;;;;;;;;;;5053748;28;20469;-60
2021/05/30 11:41:23;;;;;;;4.47;3.80;;;;;;;;;;5053802;28;20451;-60
2021/05/30 11:43:58;;;;;;;4.10;3.70;;;;;;;;;;5054005;28;20483;-60
2021/05/30 11:46:25;;;;;;;3.83;3.50;;;;;;;;;;5053212;28;20475;-59
2021/05/30 11:48:59;;;;;;;6.07;3.47;;;;;;;;;;5054797;28;20816;-59
2021/05/30 11:51:26;;;;;;;5.50;4.20;;;;;;;;;;5054220;28;20448;-61
2021/05/30 11:53:53;;;;;;;5.27;4.77;;;;;;;;;;5054493;28;20509;-60
2021/05/30 11:56:22;;;;;;;4.80;3.87;;;;;;;;;;5053315;28;20457;-61
2021/05/30 11:58:49;;;;;;;4.40;4.00;;;;;;;;;;5053919;28;20454;-59
2021/05/30 12:01:17;;;;;;;4.33;3.80;;;;;;;;;;5053465;28;20476;-60
2021/05/30 12:03:48;;;;;;;4.67;4.20;;;;;;;;;;5052945;28;20455;-60
2021/05/30 12:06:15;;;;;;;3.67;3.03;;;;;;;;;;5052930;28;20513;-58
2021/05/30 12:08:42;;;;;;;3.70;3.10;;;;;;;;;;5053225;28;20536;-59
2021/05/30 12:11:11;;;;;;;3.83;3.43;;;;;;;;;;5053300;28;20443;-59
2021/05/30 12:13:39;;;;;;;3.87;3.10;;;;;;;;;;5052981;28;20927;-59
2021/05/30 12:16:16;;;;;;;3.90;3.60;;;;;;;;;;5053174;28;20838;-59
2021/05/30 12:18:54;;;;;;;3.87;3.47;;;;;;;;;;5053380;28;20452;-59
2021/05/30 12:21:20;;;;;;;3.20;2.90;;;;;;;;;;5053337;28;20446;-59
2021/05/30 12:23:47;;;;;;;2.63;2.40;;;;;;;;;;5053862;28;20455;-59
2021/05/30 12:26:14;;;;;;;2.60;2.40;;;;;;;;;;5067901;22;20541;-60
2021/05/30 12:28:41;;;;;;;4.90;2.97;;;;;;;;;;5070054;22;20564;-61
2021/05/30 12:31:09;;;;;;;6.30;2.70;;;;;;;;;;5056909;28;21005;-58
2021/05/30 12:33:53;;;;;;;3.23;2.93;;;;;;;;;;5057324;28;20444;-60
2021/05/30 12:36:34;;;;;;;5.63;4.97;;;;;;;;;;5056724;28;20992;-59
2021/05/30 12:39:02;;;;;;;4.23;3.53;;;;;;;;;;5057507;28;20470;-59
2021/05/30 12:41:32;;;;;;;3.40;2.67;;;;;;;;;;5056483;28;20917;-59
2021/05/30 12:44:06;;;;;;;3.53;2.90;;;;;;;;;;5056827;28;20455;-60
2021/05/30 12:46:33;;;;;;;4.30;2.90;;;;;;;;;;5056890;28;20427;-60
2021/05/30 12:49:09;;;;;;;3.93;3.37;;;;;;;;;;5056578;28;20475;-59
2021/05/30 12:51:37;;;;;;;2.90;2.60;;;;;;;;;;5057008;28;20496;-59
2021/05/30 12:54:16;;;;;;;6.53;3.10;;;;;;;;;;5056524;28;20562;-59
2021/05/30 12:56:46;;;;;;;3.57;2.90;;;;;;;;;;5056262;28;20895;-60
2021/05/30 12:59:13;;;;;;;3.53;2.97;;;;;;;;;;5056620;28;20557;-60
2021/05/30 13:01:42;;;;;;;3.60;3.20;;;;;;;;;;5057833;28;20527;-59
2021/05/30 13:04:18;;;;;;;3.87;3.43;;;;;;;;;;5056521;28;20945;-59
2021/05/30 13:06:57;;;;;;;3.50;3.20;;;;;;;;;;5056106;28;20451;-59
2021/05/30 13:09:25;;;;;;;4.90;3.00;;;;;;;;;;5056131;28;20899;-60
2021/05/30 13:11:52;;;;;;;3.53;3.23;;;;;;;;;;5056241;28;20449;-58
2021/05/30 13:14:32;;;;;;;3.50;3.20;;;;;;;;;;5056382;28;20539;-60
2021/05/30 13:17:18;;;;;;;8.27;3.53;;;;;;;;;;5056104;28;20473;-60
2021/05/30 13:20:00;;;;;;;3.70;3.40;;;;;;;;;;5055539;28;20474;-59
2021/05/30 13:22:28;;;;;;;3.30;3.00;;;;;;;;;;5055931;28;20448;-57
2021/05/30 13:24:55;;;;;;;3.90;3.50;;;;;;;;;;5055695;28;20456;-60
2021/05/30 13:27:23;;;;;;;3.70;3.40;;;;;;;;;;5055403;28;20486;-60
2021/05/30 13:30:00;;;;;;;4.20;3.13;;;;;;;;;;5055720;28;20507;-60
2021/05/30 13:32:27;;;;;;;3.63;3.20;;;;;;;;;;5055812;28;20925;-60
2021/05/30 13:34:54;;;;;;;4.10;3.80;;;;;;;;;;5056800;28;20808;-60
2021/05/30 13:37:21;;;;;;;3.83;3.03;;;;;;;;;;5055425;28;20946;-60
2021/05/30 13:39:49;;;;;;;3.60;3.20;;;;;;;;;;5055106;28;20471;-61
2021/05/30 13:42:15;;;;;;;3.23;3.03;;;;;;;;;;5056094;28;20443;-60
2021/05/30 13:44:42;;;;;;;3.27;3.07;;;;;;;;;;5055940;28;20444;-60
2021/05/30 13:47:09;;;;;;;3.13;2.83;;;;;;;;;;5055454;28;20480;-58
2021/05/30 13:49:36;;;;;;;3.80;3.10;;;;;;;;;;5055522;28;20476;-59
2021/05/30 13:52:03;;;;;;;3.70;3.10;;;;;;;;;;5055243;28;20457;-58
2021/05/30 13:54:29;;;;;;;3.33;3.03;;;;;;;;;;5055589;28;20537;-59
2021/05/30 13:56:57;;;;;;;3.33;3.07;;;;;;;;;;5055867;28;20463;-58
2021/05/30 13:59:24;;;;;;;3.40;2.93;;;;;;;;;;5055409;28;20471;-60
2021/05/30 14:01:51;;;;;;;3.10;2.80;;;;;;;;;;5055070;28;20942;-59
2021/05/30 14:04:17;;;;;;;6.00;3.10;;;;;;;;;;5055561;28;20447;-59
2021/05/30 14:06:46;;;;;;;5.00;3.20;;;;;;;;;;5055461;28;20447;-59
2021/05/30 14:09:13;;;;;;;4.00;3.60;;;;;;;;;;5055178;28;20478;-58
2021/05/30 14:11:39;;;;;;;3.47;3.17;;;;;;;;;;5055041;28;20452;-59
2021/05/30 14:14:07;;;;;;;3.70;3.30;;;;;;;;;;5054669;28;20943;-60
2021/05/30 14:16:35;;;;;;;3.80;3.50;;;;;;;;;;5054456;28;20943;-60
2021/05/30 14:19:02;;;;;;;3.80;3.40;;;;;;;;;;5054841;28;20934;-60
2021/05/30 14:21:28;;;;;;;5.10;3.17;;;;;;;;;;5054728;28;20522;-60
2021/05/30 14:23:55;;;;;;;6.70;4.13;;;;;;;;;;5054774;28;20443;-59
2021/05/30 14:26:22;;;;;;;4.97;3.80;;;;;;;;;;5054643;28;20499;-59
2021/05/30 14:28:49;;;;;;;3.57;3.27;;;;;;;;;;5054374;28;20498;-58
2021/05/30 14:31:16;;;;;;;5.13;3.70;;;;;;;;;;5054466;28;20441;-60
2021/05/30 14:33:43;;;;;;;5.33;3.00;;;;;;;;;;5054754;28;20447;-59
2021/05/30 14:36:10;;;;;;;3.90;3.37;;;;;;;;;;5054513;28;20447;-59
2021/05/30 14:38:37;;;;;;;4.70;4.10;;;;;;;;;;5054558;28;20514;-60
2021/05/30 14:41:03;;;;;;;4.80;3.33;;;;;;;;;;5054556;28;20442;-59
2021/05/30 14:43:30;;;;;;;5.00;3.20;;;;;;;;;;5053820;28;20541;-60